^^
Saratoga-Weather Station Historical Data
Daily Summary for February 5, 2021 Units:  Metric    English   Both
Daily Weekly Monthly Yearly Custom
  High: Low: Average:
Temperature: 19.9 °C 15.5 °C 16.5 °C
Dew Point: 18 °C 14.3 °C 15.2 °C
Humidity: 95% 87% 92%
Wind Speed: 11.1km/h 0km/h 2.4km/h
Wind Gust: 19.3km/h - -
Wind- - SSE
Pressure: 1010.2 hPa 1007.5 hPa -
Precipitation: 0.8 mm    
Historical Graphs
 
 
Tabular Data for February 5, 2021
Time Temperature Dew Point Pressure Wind Wind Speed Wind Gust Humidity Rainfall Rate (Hourly) solar
00:04 16.5 °C 15.2 °C 1010.2 hPa Calm     92% 0.0 mm 0 W/m2
00:09 16.3 °C 15.2 °C 1010.2 hPa Calm   3.2 km/h 93% 0.0 mm 0 W/m2
00:14 16.2 °C 15.1 °C 1010.2 hPa Calm   3.2 km/h 93% 0.0 mm 0 W/m2
00:19 16.1 °C 15 °C 1010.2 hPa Calm     93% 0.0 mm 0 W/m2
00:24 16.1 °C 15 °C 1010.2 hPa Calm   1.6 km/h 93% 0.0 mm 0 W/m2
00:29 16 °C 15 °C 1010.2 hPa Calm     94% 0.0 mm 0 W/m2
00:34 15.9 °C 14.9 °C 1010.2 hPa Calm   1.6 km/h 94% 0.0 mm 0 W/m2
00:39 15.9 °C 14.9 °C 1010.2 hPa Calm     94% 0.0 mm 0 W/m2
00:44 15.9 °C 14.9 °C 1009.8 hPa Calm     94% 0.0 mm 0 W/m2
00:49 15.9 °C 14.9 °C 1009.8 hPa Calm     94% 0.0 mm 0 W/m2
00:54 15.8 °C 14.8 °C 1009.8 hPa Calm     94% 0.0 mm 0 W/m2
00:59 15.7 °C 14.7 °C 1009.8 hPa Calm     94% 0.0 mm 0 W/m2
01:04 15.6 °C 14.6 °C 1010.2 hPa Calm   3.2 km/h 94% 0.0 mm 0 W/m2
01:09 15.5 °C 14.5 °C 1009.8 hPa SW 1.4 km/h 1.6 km/h 94% 0.0 mm 0 W/m2
01:14 15.5 °C 14.5 °C 1010.2 hPa Calm     94% 0.0 mm 0 W/m2
01:19 15.5 °C 14.5 °C 1010.2 hPa Calm   3.2 km/h 94% 0.0 mm 0 W/m2
01:24 15.5 °C 14.5 °C 1010.2 hPa ENE 1.4 km/h 4.8 km/h 94% 0.0 mm 0 W/m2
01:29 15.5 °C 14.5 °C 1010.2 hPa ENE 1.4 km/h 3.2 km/h 94% 0.0 mm 0 W/m2
01:34 15.5 °C 14.5 °C 1010.2 hPa Calm   4.8 km/h 94% 0.0 mm 0 W/m2
01:39 15.6 °C 14.6 °C 1009.8 hPa NE 1.4 km/h 3.2 km/h 94% 0.0 mm 0 W/m2
01:44 15.6 °C 14.8 °C 1009.8 hPa ENE 1.4 km/h 3.2 km/h 95% 0.0 mm 0 W/m2
01:49 15.7 °C 14.7 °C 1009.8 hPa Calm   1.6 km/h 94% 0.0 mm 0 W/m2
01:54 15.8 °C 14.8 °C 1009.8 hPa NE 3.2 km/h 4.8 km/h 94% 0.0 mm 0 W/m2
01:59 15.9 °C 14.9 °C 1009.8 hPa ENE 3.2 km/h 4.8 km/h 94% 0.0 mm 0 W/m2
02:04 16.1 °C 15.1 °C 1009.8 hPa Calm   3.2 km/h 94% 0.0 mm 0 W/m2
02:09 16.2 °C 15.1 °C 1010.2 hPa ENE 4.7 km/h 4.8 km/h 93% 0.0 mm 0 W/m2
02:14 16.3 °C 15.2 °C 1010.2 hPa Calm   8 km/h 93% 0.0 mm 0 W/m2
02:19 16.4 °C 15.3 °C 1009.8 hPa NNE 1.4 km/h 4.8 km/h 93% 0.0 mm 0 W/m2
02:24 16.6 °C 15.3 °C 1009.8 hPa North 1.4 km/h 8 km/h 92% 0.0 mm 0 W/m2
02:29 16.7 °C 15.4 °C 1009.8 hPa North 3.2 km/h 3.2 km/h 92% 0.0 mm 0 W/m2
02:34 16.7 °C 15.4 °C 1009.8 hPa SSW 1.4 km/h 4.8 km/h 92% 0.0 mm 0 W/m2
02:39 16.7 °C 15.4 °C 1009.5 hPa North 3.2 km/h 6.4 km/h 92% 0.0 mm 0 W/m2
02:44 16.7 °C 15.4 °C 1009.5 hPa North 1.4 km/h 4.8 km/h 92% 0.0 mm 0 W/m2
02:49 16.7 °C 15.2 °C 1009.5 hPa Calm   6.4 km/h 91% 0.0 mm 0 W/m2
02:54 16.7 °C 15.2 °C 1009.5 hPa SSE 1.4 km/h 8 km/h 91% 0.0 mm 0 W/m2
02:59 16.7 °C 15.2 °C 1009.8 hPa Calm   6.4 km/h 91% 0.0 mm 0 W/m2
03:04 16.7 °C 15.2 °C 1009.8 hPa Calm   1.6 km/h 91% 0.0 mm 0 W/m2
03:09 16.7 °C 15.2 °C 1009.8 hPa NNW 1.4 km/h 4.8 km/h 91% 0.0 mm 0 W/m2
03:14 16.7 °C 15.2 °C 1009.8 hPa Calm   3.2 km/h 91% 0.0 mm 0 W/m2
03:19 16.7 °C 15.2 °C 1009.8 hPa Calm   4.8 km/h 91% 0.0 mm 0 W/m2
03:24 16.7 °C 15.2 °C 1009.8 hPa Calm   3.2 km/h 91% 0.0 mm 0 W/m2
03:29 16.7 °C 15.2 °C 1009.8 hPa NW 1.4 km/h 3.2 km/h 91% 0.0 mm 0 W/m2
03:34 16.7 °C 15.2 °C 1009.8 hPa NW 9.7 km/h 9.7 km/h 91% 0.0 mm 0 W/m2
03:39 16.7 °C 15.2 °C 1009.8 hPa ENE 1.4 km/h 6.4 km/h 91% 0.0 mm 0 W/m2
03:44 16.7 °C 15.2 °C 1009.8 hPa WNW 1.4 km/h 8 km/h 91% 0.0 mm 0 W/m2
03:49 16.7 °C 15.2 °C 1009.8 hPa Calm   4.8 km/h 91% 0.0 mm 0 W/m2
03:54 16.7 °C 15.2 °C 1009.5 hPa West 3.2 km/h 8 km/h 91% 0.0 mm 0 W/m2
03:59 16.7 °C 15.1 °C 1009.5 hPa WNW 7.9 km/h 14.5 km/h 90% 0.0 mm 0 W/m2
04:04 16.6 °C 15 °C 1009.5 hPa SW 3.2 km/h 4.8 km/h 90% 0.0 mm 0 W/m2
04:09 16.6 °C 15 °C 1009.1 hPa WNW 3.2 km/h 14.5 km/h 90% 0.0 mm 0 W/m2
04:14 16.5 °C 14.9 °C 1009.1 hPa WNW 4.7 km/h 4.8 km/h 90% 0.0 mm 0 W/m2
04:19 16.4 °C 14.8 °C 1009.5 hPa WNW 3.2 km/h 11.3 km/h 90% 0.0 mm 0 W/m2
04:24 16.3 °C 14.7 °C 1009.5 hPa NW 7.9 km/h 8 km/h 90% 0.0 mm 0 W/m2
04:29 16.3 °C 14.7 °C 1009.5 hPa WNW 6.4 km/h 11.3 km/h 90% 0.0 mm 0 W/m2
04:34 16.3 °C 14.7 °C 1009.8 hPa WNW 11.1 km/h 11.3 km/h 90% 0.0 mm 0 W/m2
04:39 16.2 °C 14.6 °C 1009.5 hPa WNW 7.9 km/h 11.3 km/h 90% 0.0 mm 0 W/m2
04:44 16.2 °C 14.6 °C 1009.8 hPa WNW 6.4 km/h 12.9 km/h 90% 0.0 mm 0 W/m2
04:49 16.1 °C 14.5 °C 1009.5 hPa WNW 4.7 km/h 11.3 km/h 90% 0.0 mm 0 W/m2
04:54 16.1 °C 14.5 °C 1009.5 hPa NW 4.7 km/h 12.9 km/h 90% 0.0 mm 0 W/m2
04:59 16 °C 14.4 °C 1009.1 hPa West 6.4 km/h 11.3 km/h 90% 0.0 mm 0 W/m2
05:05 15.9 °C 14.3 °C 1009.5 hPa WNW 1.4 km/h 9.7 km/h 90% 0.0 mm 0 W/m2
05:10 15.9 °C 14.4 °C 1009.5 hPa West 6.4 km/h 9.7 km/h 91% 0.0 mm 0 W/m2
05:15 15.9 °C 14.4 °C 1009.5 hPa WNW 4.7 km/h 4.8 km/h 91% 0.0 mm 0 W/m2
05:20 15.8 °C 14.3 °C 1009.5 hPa West 9.7 km/h 9.7 km/h 91% 0.0 mm 0 W/m2
05:25 15.8 °C 14.3 °C 1009.1 hPa NNW 1.4 km/h 6.4 km/h 91% 0.0 mm 0 W/m2
05:30 15.8 °C 14.3 °C 1009.5 hPa West 3.2 km/h 4.8 km/h 91% 0.0 mm 0 W/m2
05:35 15.8 °C 14.3 °C 1009.5 hPa Calm   3.2 km/h 91% 0.0 mm 0 W/m2
05:40 15.8 °C 14.3 °C 1009.8 hPa Calm   1.6 km/h 91% 0.0 mm 0 W/m2
05:45 15.8 °C 14.3 °C 1009.5 hPa West 3.2 km/h 3.2 km/h 91% 0.0 mm 0 W/m2
05:50 15.7 °C 14.4 °C 1009.8 hPa Calm     92% 0.0 mm 0 W/m2
05:55 15.7 °C 14.4 °C 1009.8 hPa NE 1.4 km/h 1.6 km/h 92% 0.0 mm 0 W/m2
06:00 15.7 °C 14.4 °C 1009.8 hPa Calm     92% 0.0 mm 0 W/m2
06:05 15.7 °C 14.4 °C 1009.8 hPa Calm     92% 0.0 mm 5 W/m2
06:10 15.6 °C 14.3 °C 1009.8 hPa Calm   1.6 km/h 92% 0.0 mm 7 W/m2
06:15 15.6 °C 14.3 °C 1009.8 hPa NE 1.4 km/h 3.2 km/h 92% 0.0 mm 7 W/m2
06:20 15.6 °C 14.3 °C 1009.8 hPa Calm     92% 0.0 mm 7 W/m2
06:25 15.6 °C 14.3 °C 1009.8 hPa Calm     92% 0.0 mm 7 W/m2
06:30 15.6 °C 14.3 °C 1009.8 hPa Calm     92% 0.0 mm 11 W/m2
06:35 15.6 °C 14.5 °C 1009.8 hPa Calm     93% 0.0 mm 12 W/m2
06:40 15.5 °C 14.4 °C 1009.8 hPa Calm     93% 0.0 mm 18 W/m2
06:45 15.5 °C 14.4 °C 1009.8 hPa Calm     93% 0.0 mm 21 W/m2
06:50 15.5 °C 14.4 °C 1009.8 hPa SE 3.2 km/h 4.8 km/h 93% 0.0 mm 21 W/m2
06:55 15.6 °C 14.5 °C 1009.5 hPa Calm     93% 0.0 mm 26 W/m2
07:00 15.6 °C 14.5 °C 1009.5 hPa ESE 1.4 km/h 4.8 km/h 93% 0.0 mm 32 W/m2
07:05 15.6 °C 14.5 °C 1009.5 hPa East 1.4 km/h 1.6 km/h 93% 0.0 mm 33 W/m2
07:10 15.7 °C 14.6 °C 1009.5 hPa ENE 1.4 km/h 3.2 km/h 93% 0.0 mm 39 W/m2
07:15 15.7 °C 14.6 °C 1009.8 hPa East 1.4 km/h 4.8 km/h 93% 0.0 mm 42 W/m2
07:20 15.8 °C 14.7 °C 1009.5 hPa Calm   3.2 km/h 93% 0.0 mm 42 W/m2
07:25 15.8 °C 14.7 °C 1009.5 hPa Calm   3.2 km/h 93% 0.0 mm 46 W/m2
07:30 15.9 °C 14.8 °C 1009.5 hPa Calm     93% 0.0 mm 35 W/m2
07:35 15.9 °C 14.6 °C 1009.5 hPa Calm     92% 0.0 mm 30 W/m2
07:40 16 °C 14.7 °C 1009.5 hPa Calm     92% 0.0 mm 35 W/m2
07:45 16.1 °C 14.8 °C 1009.5 hPa Calm     92% 0.0 mm 37 W/m2
07:50 16.1 °C 14.8 °C 1009.5 hPa Calm     92% 0.0 mm 49 W/m2
07:55 16.2 °C 15.1 °C 1009.5 hPa Calm     93% 0.0 mm 65 W/m2
08:00 16.2 °C 15.1 °C 1009.5 hPa ENE 3.2 km/h 3.2 km/h 93% 0.0 mm 47 W/m2
08:05 16.3 °C 15 °C 1009.5 hPa ENE 1.4 km/h 3.2 km/h 92% 0.0 mm 58 W/m2
08:10 16.3 °C 15 °C 1009.5 hPa ENE 3.2 km/h 3.2 km/h 92% 0.0 mm 81 W/m2
08:15 16.4 °C 15.1 °C 1009.5 hPa Calm   1.6 km/h 92% 0.0 mm 63 W/m2
08:20 16.4 °C 15.1 °C 1009.5 hPa Calm   1.6 km/h 92% 0.0 mm 69 W/m2
08:25 16.5 °C 15.2 °C 1009.5 hPa Calm     92% 0.0 mm 76 W/m2
08:30 16.5 °C 15.2 °C 1009.5 hPa Calm   1.6 km/h 92% 0.0 mm 86 W/m2
08:35 16.6 °C 15.3 °C 1009.5 hPa Calm   1.6 km/h 92% 0.0 mm 109 W/m2
08:40 16.7 °C 15.4 °C 1009.5 hPa Calm   1.6 km/h 92% 0.0 mm 105 W/m2
08:45 16.7 °C 15.2 °C 1009.1 hPa ENE 1.4 km/h 3.2 km/h 91% 0.2 mm 95 W/m2
08:50 16.7 °C 15.2 °C 1009.1 hPa East 3.2 km/h 3.2 km/h 91% 0.2 mm 86 W/m2
08:55 16.6 °C 15.1 °C 1009.5 hPa East 1.4 km/h 4.8 km/h 91% 0.2 mm 120 W/m2
09:01 16.6 °C 15.1 °C 1009.1 hPa SE 3.2 km/h 4.8 km/h 91% 0.2 mm 114 W/m2
09:06 16.7 °C 15.4 °C 1009.1 hPa ENE 3.2 km/h 6.4 km/h 92% 0.5 mm 116 W/m2
09:11 16.6 °C 15.3 °C 1009.1 hPa ESE 1.4 km/h 3.2 km/h 92% 0.5 mm 98 W/m2
09:16 16.6 °C 15.3 °C 1009.1 hPa NE 1.4 km/h 6.4 km/h 92% 0.5 mm 113 W/m2
09:21 16.5 °C 15.2 °C 1009.1 hPa ENE 1.4 km/h 1.6 km/h 92% 0.5 mm 111 W/m2
09:26 16.6 °C 15.5 °C 1009.1 hPa ESE 3.2 km/h 4.8 km/h 93% 0.5 mm 128 W/m2
09:31 16.5 °C 15.2 °C 1009.1 hPa ENE 4.7 km/h 11.3 km/h 92% 0.5 mm 156 W/m2
09:36 16.6 °C 15.3 °C 1009.1 hPa ESE 4.7 km/h 8 km/h 92% 0.5 mm 193 W/m2
09:41 16.6 °C 15.3 °C 1009.1 hPa NE 3.2 km/h 11.3 km/h 92% 0.2 mm 181 W/m2
09:46 16.6 °C 15.3 °C 1008.8 hPa ESE 1.4 km/h 6.4 km/h 92% 0.2 mm 209 W/m2
09:51 16.7 °C 15.4 °C 1008.8 hPa ENE 4.7 km/h 6.4 km/h 92% 0.2 mm 213 W/m2
09:56 16.7 °C 15.2 °C 1008.8 hPa NE 3.2 km/h 6.4 km/h 91% 0.2 mm 223 W/m2
10:01 16.7 °C 15.2 °C 1008.8 hPa East 3.2 km/h 9.7 km/h 91% 0.2 mm 186 W/m2
10:06 16.8 °C 15.3 °C 1008.8 hPa ENE 7.9 km/h 11.3 km/h 91% 0.0 mm 176 W/m2
10:11 16.7 °C 15.2 °C 1008.8 hPa ENE 6.4 km/h 14.5 km/h 91% 0.0 mm 118 W/m2
10:16 16.7 °C 15.2 °C 1008.8 hPa SE 6.4 km/h 11.3 km/h 91% 0.0 mm 116 W/m2
10:21 16.6 °C 15.1 °C 1008.8 hPa East 4.7 km/h 6.4 km/h 91% 0.0 mm 111 W/m2
10:26 16.4 °C 14.9 °C 1008.8 hPa East 4.7 km/h 8 km/h 91% 0.0 mm 123 W/m2
10:31 16.3 °C 14.8 °C 1008.8 hPa NNE 7.9 km/h 8 km/h 91% 0.0 mm 137 W/m2
10:36 16.3 °C 14.8 °C 1008.8 hPa ENE 7.9 km/h 9.7 km/h 91% 0.0 mm 135 W/m2
10:41 16.3 °C 14.7 °C 1008.8 hPa NE 1.4 km/h 12.9 km/h 90% 0.0 mm 178 W/m2
10:46 16.3 °C 14.7 °C 1008.8 hPa ENE 1.4 km/h 8 km/h 90% 0.0 mm 134 W/m2
10:51 16.4 °C 14.8 °C 1008.8 hPa East 1.4 km/h 12.9 km/h 90% 0.0 mm 169 W/m2
10:56 16.4 °C 14.8 °C 1008.8 hPa East 3.2 km/h 6.4 km/h 90% 0.0 mm 195 W/m2
11:01 16.4 °C 14.9 °C 1008.8 hPa ESE 1.4 km/h 6.4 km/h 91% 0.0 mm 199 W/m2
11:06 16.3 °C 14.8 °C 1008.8 hPa ENE 3.2 km/h 6.4 km/h 91% 0.2 mm 153 W/m2
11:11 16.2 °C 14.9 °C 1008.8 hPa NE 6.4 km/h 9.7 km/h 92% 0.2 mm 144 W/m2
11:16 16 °C 14.7 °C 1008.5 hPa East 4.7 km/h 12.9 km/h 92% 0.2 mm 176 W/m2
11:21 15.9 °C 14.6 °C 1008.5 hPa East 6.4 km/h 9.7 km/h 92% 0.2 mm 195 W/m2
11:26 15.9 °C 14.6 °C 1008.5 hPa East 4.7 km/h 19.3 km/h 92% 0.2 mm 281 W/m2
11:31 16.1 °C 15 °C 1008.5 hPa East 6.4 km/h 14.5 km/h 93% 0.2 mm 315 W/m2
11:36 16.2 °C 15.1 °C 1008.5 hPa NE 3.2 km/h 9.7 km/h 93% 0.2 mm 264 W/m2
11:41 16.2 °C 15.1 °C 1008.5 hPa East 1.4 km/h 14.5 km/h 93% 0.2 mm 230 W/m2
11:46 16.3 °C 15.3 °C 1008.5 hPa NNE 4.7 km/h 8 km/h 94% 0.2 mm 260 W/m2
11:51 16.4 °C 15.4 °C 1008.5 hPa ESE 6.4 km/h 9.7 km/h 94% 0.2 mm 267 W/m2
11:56 16.4 °C 15.4 °C 1008.5 hPa East 1.4 km/h 6.4 km/h 94% 0.2 mm 230 W/m2
12:01 16.6 °C 15.6 °C 1008.5 hPa North 1.4 km/h 4.8 km/h 94% 0.2 mm 255 W/m2
12:06 16.7 °C 15.7 °C 1008.5 hPa East 3.2 km/h 9.7 km/h 94% 0.0 mm 134 W/m2
12:11 16.6 °C 15.6 °C 1008.5 hPa ENE 3.2 km/h 6.4 km/h 94% 0.0 mm 162 W/m2
12:16 16.7 °C 15.7 °C 1008.5 hPa ENE 3.2 km/h 9.7 km/h 94% 0.0 mm 236 W/m2
12:21 16.8 °C 15.8 °C 1008.1 hPa ENE 1.4 km/h 4.8 km/h 94% 0.0 mm 295 W/m2
12:26 16.9 °C 15.9 °C 1008.1 hPa NE 1.4 km/h 1.6 km/h 94% 0.0 mm 142 W/m2
12:31 17 °C 16 °C 1008.1 hPa WSW 4.7 km/h 12.9 km/h 94% 0.0 mm 79 W/m2
12:36 17 °C 16 °C 1008.1 hPa East 3.2 km/h 6.4 km/h 94% 0.0 mm 127 W/m2
12:41 17 °C 16 °C 1008.1 hPa ENE 6.4 km/h 6.4 km/h 94% 0.0 mm 74 W/m2
12:46 16.9 °C 15.9 °C 1008.1 hPa Calm   9.7 km/h 94% 0.0 mm 88 W/m2
12:51 17 °C 16 °C 1008.1 hPa NE 1.4 km/h 3.2 km/h 94% 0.0 mm 185 W/m2
12:56 17.2 °C 16.2 °C 1008.1 hPa NW 3.2 km/h 3.2 km/h 94% 0.0 mm 325 W/m2
13:01 17.3 °C 16.3 °C 1008.1 hPa North 3.2 km/h 11.3 km/h 94% 0.0 mm 214 W/m2
13:06 17.6 °C 16.6 °C 1008.1 hPa North 3.2 km/h 4.8 km/h 94% 0.0 mm 359 W/m2
13:11 17.9 °C 16.9 °C 1008.1 hPa NNW 3.2 km/h 8 km/h 94% 0.0 mm 214 W/m2
13:17 18.1 °C 16.9 °C 1008.1 hPa NW 4.7 km/h 11.3 km/h 93% 0.0 mm 204 W/m2
13:22 18.1 °C 16.9 °C 1008.1 hPa North 1.4 km/h 6.4 km/h 93% 0.0 mm 292 W/m2
13:27 18.2 °C 17 °C 1007.8 hPa NE 4.7 km/h 11.3 km/h 93% 0.0 mm 422 W/m2
13:32 18.5 °C 17.3 °C 1007.8 hPa WSW 4.7 km/h 6.4 km/h 93% 0.0 mm 538 W/m2
13:37 18.9 °C 17.7 °C 1007.8 hPa NNE 6.4 km/h 6.4 km/h 93% 0.0 mm 450 W/m2
13:42 19.2 °C 17.7 °C 1007.8 hPa WNW 1.4 km/h 6.4 km/h 91% 0.0 mm 172 W/m2
13:47 19.1 °C 17.2 °C 1007.8 hPa Calm   6.4 km/h 89% 0.0 mm 278 W/m2
13:52 19.2 °C 17.5 °C 1007.8 hPa North 3.2 km/h 3.2 km/h 90% 0.2 mm 606 W/m2
13:57 19.4 °C 17.9 °C 1007.8 hPa NNW 4.7 km/h 6.4 km/h 91% 0.2 mm 339 W/m2
14:02 19.7 °C 18 °C 1007.8 hPa WNW 3.2 km/h 9.7 km/h 90% 0.2 mm 304 W/m2
14:07 19.8 °C 17.9 °C 1007.8 hPa SW 1.4 km/h 4.8 km/h 89% 0.2 mm 206 W/m2
14:12 19.8 °C 17.6 °C 1007.8 hPa West 3.2 km/h 4.8 km/h 87% 0.2 mm 193 W/m2
14:17 19.8 °C 17.6 °C 1007.8 hPa NNW 1.4 km/h 6.4 km/h 87% 0.2 mm 388 W/m2
14:22 19.9 °C 17.7 °C 1007.5 hPa WSW 1.4 km/h 6.4 km/h 87% 0.2 mm 258 W/m2
Juneau County Weather
Compliments of Weather Underground - 2 mb